Time,TemperatureF,DewpointF,PressureIn,WindDirection,WindDirectionDegrees,WindSpeedMPH,WindSpeedGustMPH,Humidity,HourlyPrecipIn,Conditions,Clouds,dailyrainin,SoftwareType,DateUTC
2013-07-23 00:01:00,75.0,66.6,31.03,NE,49,8.0,-999.0,75,-99.99,,,0.00,meteohub,2013-07-23 04:01:00,
2013-07-23 00:02:00,75.0,66.6,31.03,North,6,8.0,-999.0,75,-99.99,,,0.00,meteohub,2013-07-23 04:02:00,
2013-07-23 00:03:00,75.0,66.6,31.03,NNE,16,8.0,-999.0,75,-99.99,,,0.00,meteohub,2013-07-23 04:03:00,
2013-07-23 00:09:00,75.0,67.3,31.03,NNE,30,8.0,-999.0,77,-99.99,,,0.00,meteohub,2013-07-23 04:09:00,
2013-07-23 00:14:00,75.0,67.6,31.03,North,6,8.0,-999.0,78,-99.99,,,0.00,meteohub,2013-07-23 04:14:00,
2013-07-23 00:19:00,74.8,67.5,31.03,NNE,32,6.0,-999.0,78,0.00,,,0.00,meteohub,2013-07-23 04:19:00,
2013-07-23 00:24:00,75.0,68.0,31.03,NNE,27,6.0,9.0,79,0.00,,,0.00,meteohub,2013-07-23 04:24:00,
2013-07-23 00:29:00,75.0,68.0,31.03,NNE,14,8.0,9.0,79,0.00,,,0.00,meteohub,2013-07-23 04:29:00,
2013-07-23 00:35:00,74.8,67.8,31.03,NNE,24,8.0,9.0,79,0.00,,,0.00,meteohub,2013-07-23 04:35:00,
2013-07-23 00:40:00,74.7,68.0,31.03,NNE,23,8.0,11.0,80,0.00,,,0.00,meteohub,2013-07-23 04:40:00,
2013-07-23 00:45:00,74.8,68.2,31.03,NE,34,8.0,11.0,80,0.00,,,0.00,meteohub,2013-07-23 04:45:00,
2013-07-23 00:50:00,74.8,68.5,31.03,North,7,8.0,11.0,81,0.00,,,0.00,meteohub,2013-07-23 04:50:00,
2013-07-23 00:56:00,74.8,68.2,31.03,NNE,29,8.0,11.0,80,0.00,,,0.00,meteohub,2013-07-23 04:56:00,
2013-07-23 01:01:00,74.8,68.5,31.03,NNE,21,6.0,11.0,81,0.00,,,0.00,meteohub,2013-07-23 05:01:00,
2013-07-23 01:06:00,74.8,68.5,31.03,NNE,18,6.0,9.0,81,0.00,,,0.00,meteohub,2013-07-23 05:06:00,
2013-07-23 01:12:00,74.8,68.5,31.03,NNE,30,5.0,9.0,81,0.00,,,0.00,meteohub,2013-07-23 05:12:00,
2013-07-23 01:17:00,74.8,68.5,31.03,NNE,17,8.0,8.0,81,0.00,,,0.00,meteohub,2013-07-23 05:17:00,
2013-07-23 01:22:00,74.8,68.5,31.03,NNE,14,6.0,8.0,81,0.00,,,0.00,meteohub,2013-07-23 05:22:00,
2013-07-23 01:27:00,74.8,68.5,31.03,NE,41,6.0,-999.0,81,0.00,,,0.00,meteohub,2013-07-23 05:27:00,
2013-07-23 01:32:00,74.7,68.4,31.03,North,9,6.0,-999.0,81,0.00,,,0.00,meteohub,2013-07-23 05:32:00,
2013-07-23 01:37:00,74.7,68.4,31.03,NNE,12,7.0,9.0,81,0.00,,,0.00,meteohub,2013-07-23 05:37:00,
2013-07-23 01:42:00,74.5,68.2,31.03,NNE,17,6.0,9.0,81,0.00,,,0.00,meteohub,2013-07-23 05:42:00,
2013-07-23 01:48:00,74.7,68.4,31.03,North,357,6.0,9.0,81,0.00,,,0.00,meteohub,2013-07-23 05:48:00,
2013-07-23 01:53:00,74.8,68.5,31.03,North,2,3.0,9.0,81,0.00,,,0.00,meteohub,2013-07-23 05:53:00,
2013-07-23 01:58:00,75.0,68.7,31.03,North,357,5.0,8.0,81,0.00,,,0.00,meteohub,2013-07-23 05:58:00,
2013-07-23 02:03:00,75.2,68.9,31.03,NNE,17,6.0,8.0,81,0.00,,,0.00,meteohub,2013-07-23 06:03:00,
2013-07-23 02:08:00,75.2,68.9,31.03,North,11,5.0,8.0,81,0.00,,,0.00,meteohub,2013-07-23 06:08:00,
2013-07-23 02:13:00,75.2,68.9,31.03,NE,38,5.0,9.0,81,0.00,,,0.00,meteohub,2013-07-23 06:13:00,
2013-07-23 02:18:00,75.2,68.9,31.03,NNE,20,8.0,9.0,81,0.00,,,0.00,meteohub,2013-07-23 06:18:00,
2013-07-23 02:24:00,75.2,68.9,31.03,NNE,20,8.0,9.0,81,0.00,,,0.00,meteohub,2013-07-23 06:24:00,
2013-07-23 02:29:00,75.2,68.9,31.03,North,9,6.0,9.0,81,0.00,,,0.00,meteohub,2013-07-23 06:29:00,
2013-07-23 02:35:00,75.2,68.9,31.03,NE,47,9.0,9.0,81,0.00,,,0.00,meteohub,2013-07-23 06:35:00,
2013-07-23 02:40:00,75.2,68.9,31.03,North,9,8.0,10.0,81,0.00,,,0.00,meteohub,2013-07-23 06:40:00,
2013-07-23 02:45:00,75.2,68.9,31.03,North,357,4.0,10.0,81,0.00,,,0.00,meteohub,2013-07-23 06:45:00,
2013-07-23 02:50:00,75.2,68.9,31.03,NNE,12,5.0,10.0,81,0.00,,,0.00,meteohub,2013-07-23 06:50:00,
2013-07-23 02:56:00,75.2,68.9,31.03,NNE,23,5.0,10.0,81,0.00,,,0.00,meteohub,2013-07-23 06:56:00,
2013-07-23 03:00:00,75.6,69.3,31.03,NNE,22,8.0,-999.0,81,0.00,,,0.00,meteohub,2013-07-23 07:00:00,
2013-07-23 03:06:00,75.6,69.3,31.03,North,357,8.0,-999.0,81,0.00,,,0.00,meteohub,2013-07-23 07:06:00,
2013-07-23 03:11:00,75.6,69.3,31.03,NE,52,6.0,9.0,81,0.00,,,0.00,meteohub,2013-07-23 07:11:00,
2013-07-23 03:16:00,75.6,69.3,31.03,NE,54,3.0,9.0,81,0.00,,,0.00,meteohub,2013-07-23 07:16:00,
2013-07-23 03:21:00,75.7,69.4,31.03,NE,53,4.0,8.0,81,0.00,,,0.00,meteohub,2013-07-23 07:21:00,
2013-07-23 03:27:00,75.6,69.3,31.03,NE,41,4.0,-999.0,81,0.00,,,0.00,meteohub,2013-07-23 07:27:00,
2013-07-23 03:32:00,75.4,69.1,31.03,NE,50,6.0,-999.0,81,0.00,,,0.00,meteohub,2013-07-23 07:32:00,
2013-07-23 03:37:00,75.4,69.1,31.03,NE,43,4.0,-999.0,81,0.00,,,0.00,meteohub,2013-07-23 07:37:00,
2013-07-23 03:42:00,75.2,68.9,31.03,NNE,33,6.0,7.0,81,0.00,,,0.00,meteohub,2013-07-23 07:42:00,
2013-07-23 03:47:00,75.2,68.9,31.03,NNE,28,4.0,7.0,81,0.00,,,0.00,meteohub,2013-07-23 07:47:00,
2013-07-23 03:53:00,75.2,68.9,31.03,NNE,28,5.0,7.0,81,0.00,,,0.00,meteohub,2013-07-23 07:53:00,
2013-07-23 03:58:00,75.4,69.1,31.03,NE,46,4.0,7.0,81,0.00,,,0.00,meteohub,2013-07-23 07:58:00,
2013-07-23 04:03:00,75.4,69.1,31.03,NNE,29,5.0,6.0,81,0.00,,,0.00,meteohub,2013-07-23 08:03:00,
2013-07-23 04:08:00,75.6,69.3,31.03,NE,37,5.0,6.0,81,0.00,,,0.00,meteohub,2013-07-23 08:08:00,
2013-07-23 04:14:00,75.6,69.3,31.03,NE,42,6.0,6.0,81,0.00,,,0.00,meteohub,2013-07-23 08:14:00,
2013-07-23 04:19:00,75.6,69.3,31.03,NE,40,5.0,8.0,81,0.00,,,0.00,meteohub,2013-07-23 08:19:00,
2013-07-23 04:24:00,75.6,69.3,31.03,NE,48,4.0,8.0,81,0.00,,,0.00,meteohub,2013-07-23 08:24:00,
2013-07-23 04:29:00,75.7,69.4,31.03,NE,49,5.0,8.0,81,0.00,,,0.00,meteohub,2013-07-23 08:29:00,
2013-07-23 04:35:00,75.7,69.4,31.03,NE,47,5.0,8.0,81,0.00,,,0.00,meteohub,2013-07-23 08:35:00,
2013-07-23 04:40:00,75.9,69.6,31.03,ENE,64,6.0,7.0,81,0.00,,,0.00,meteohub,2013-07-23 08:40:00,
2013-07-23 04:45:00,76.1,69.8,31.03,NE,46,5.0,7.0,81,0.00,,,0.00,meteohub,2013-07-23 08:45:00,
2013-07-23 04:50:00,75.9,69.6,31.03,NE,36,5.0,7.0,81,0.00,,,0.00,meteohub,2013-07-23 08:50:00,
2013-07-23 04:55:00,76.1,69.8,31.03,ENE,57,6.0,7.0,81,0.00,,,0.00,meteohub,2013-07-23 08:55:00,
2013-07-23 05:01:00,75.9,69.6,31.03,ENE,64,4.0,7.0,81,0.00,,,0.00,meteohub,2013-07-23 09:01:00,
2013-07-23 05:06:00,76.1,69.8,31.03,ENE,68,6.0,8.0,81,0.00,,,0.00,meteohub,2013-07-23 09:06:00,
2013-07-23 05:11:00,76.3,70.0,31.03,ENE,68,4.0,8.0,81,0.00,,,0.00,meteohub,2013-07-23 09:11:00,
2013-07-23 05:16:00,76.5,70.2,31.03,ENE,75,6.0,6.0,81,0.00,,,0.00,meteohub,2013-07-23 09:16:00,
2013-07-23 05:22:00,76.8,70.5,31.03,ENE,59,6.0,6.0,81,0.00,,,0.00,meteohub,2013-07-23 09:22:00,
2013-07-23 05:27:00,76.6,70.3,31.03,East,82,6.0,6.0,81,0.00,,,0.00,meteohub,2013-07-23 09:27:00,
2013-07-23 05:32:00,76.6,70.3,31.03,ENE,57,6.0,6.0,81,0.00,,,0.00,meteohub,2013-07-23 09:32:00,
2013-07-23 05:37:00,76.5,70.2,31.03,ENE,59,4.0,6.0,81,0.00,,,0.00,meteohub,2013-07-23 09:37:00,
2013-07-23 05:42:00,76.6,70.3,31.03,ENE,72,5.0,8.0,81,0.00,,,0.00,meteohub,2013-07-23 09:42:00,
2013-07-23 05:48:00,76.8,70.5,31.03,East,92,4.0,8.0,81,0.00,,,0.00,meteohub,2013-07-23 09:48:00,
2013-07-23 05:53:00,76.8,70.5,31.03,ENE,60,6.0,8.0,81,0.00,,,0.00,meteohub,2013-07-23 09:53:00,
2013-07-23 05:58:00,76.8,70.5,31.03,ENE,74,5.0,8.0,81,0.00,,,0.00,meteohub,2013-07-23 09:58:00,
2013-07-23 06:03:00,77.0,70.3,31.03,ENE,62,5.0,8.0,80,0.00,,,0.00,meteohub,2013-07-23 10:03:00,
2013-07-23 06:09:00,77.2,70.5,31.03,East,85,7.0,8.0,80,0.00,,,0.00,meteohub,2013-07-23 10:09:00,
2013-07-23 06:14:00,77.4,70.7,31.03,East,90,8.0,9.0,80,0.00,,,0.00,meteohub,2013-07-23 10:14:00,
2013-07-23 06:17:00,77.4,70.7,31.03,ENE,59,6.0,9.0,80,0.00,,,0.00,meteohub,2013-07-23 10:17:00,
2013-07-23 06:22:00,77.4,70.7,31.03,ESE,109,8.0,9.0,80,0.00,,,0.00,meteohub,2013-07-23 10:22:00,
2013-07-23 06:27:00,77.4,70.7,31.03,East,89,8.0,9.0,80,0.00,,,0.00,meteohub,2013-07-23 10:27:00,
2013-07-23 06:32:00,77.4,70.7,31.03,East,98,6.0,9.0,80,0.00,,,0.00,meteohub,2013-07-23 10:32:00,
2013-07-23 06:37:00,77.5,70.9,31.03,East,79,6.0,11.0,80,0.00,,,0.00,meteohub,2013-07-23 10:37:00,
2013-07-23 06:42:00,77.5,70.9,31.03,East,83,9.0,11.0,80,0.00,,,0.00,meteohub,2013-07-23 10:42:00,
2013-07-23 06:47:00,77.5,70.9,31.03,ENE,59,10.0,11.0,80,0.00,,,0.00,meteohub,2013-07-23 10:47:00,
2013-07-23 06:52:00,77.4,70.3,31.03,ENE,74,10.0,11.0,79,0.00,,,0.00,meteohub,2013-07-23 10:52:00,
2013-07-23 06:57:00,77.0,69.6,31.03,ENE,78,8.0,11.0,78,0.00,,,0.00,meteohub,2013-07-23 10:57:00,
2013-07-23 07:02:00,77.0,70.0,31.03,ENE,66,9.0,11.0,79,0.00,,,0.00,meteohub,2013-07-23 11:02:00,
2013-07-23 07:07:00,77.2,70.2,31.03,ENE,60,8.0,11.0,79,0.00,,,0.00,meteohub,2013-07-23 11:07:00,
2013-07-23 07:12:00,77.0,70.0,31.03,East,83,10.0,11.0,79,0.00,,,0.00,meteohub,2013-07-23 11:12:00,
2013-07-23 07:18:00,77.0,70.0,31.03,ENE,70,8.0,11.0,79,0.00,,,0.00,meteohub,2013-07-23 11:18:00,
2013-07-23 07:23:00,77.0,70.0,31.03,East,96,8.0,11.0,79,0.00,,,0.00,meteohub,2013-07-23 11:23:00,
2013-07-23 07:28:00,77.2,70.2,31.03,NE,39,6.0,11.0,79,0.00,,,0.00,meteohub,2013-07-23 11:28:00,
2013-07-23 07:34:00,77.5,70.5,31.03,ENE,72,8.0,9.0,79,0.00,,,0.00,meteohub,2013-07-23 11:34:00,
2013-07-23 07:39:00,77.9,70.9,31.03,East,101,8.0,9.0,79,0.00,,,0.00,meteohub,2013-07-23 11:39:00,
2013-07-23 07:44:00,78.3,71.2,31.03,East,94,5.0,9.0,79,0.00,,,0.00,meteohub,2013-07-23 11:44:00,
2013-07-23 07:50:00,78.3,71.2,31.03,East,96,11.0,11.0,79,0.00,,,0.00,meteohub,2013-07-23 11:50:00,
2013-07-23 07:55:00,78.3,71.2,31.03,East,82,9.0,10.0,79,0.00,,,0.00,meteohub,2013-07-23 11:55:00,
2013-07-23 08:00:00,78.3,71.2,31.03,ESE,103,4.0,10.0,79,0.00,,,0.00,meteohub,2013-07-23 12:00:00,
2013-07-23 08:06:00,78.4,71.4,31.03,East,96,9.0,10.0,79,0.00,,,0.00,meteohub,2013-07-23 12:06:00,
2013-07-23 08:11:00,78.6,71.6,31.03,East,81,5.0,11.0,79,0.00,,,0.00,meteohub,2013-07-23 12:11:00,
2013-07-23 08:16:00,78.6,71.6,31.03,East,101,9.0,11.0,79,0.00,,,0.00,meteohub,2013-07-23 12:16:00,
2013-07-23 08:22:00,78.8,71.8,31.03,ENE,78,10.0,11.0,79,0.00,,,0.00,meteohub,2013-07-23 12:22:00,
2013-07-23 08:27:00,79.0,72.0,31.03,NE,47,8.0,11.0,79,0.00,,,0.00,meteohub,2013-07-23 12:27:00,
2013-07-23 08:32:00,79.2,72.1,31.03,East,92,10.0,11.0,79,0.00,,,0.00,meteohub,2013-07-23 12:32:00,
2013-07-23 08:37:00,79.2,71.8,31.03,NE,47,11.0,11.0,78,0.00,,,0.00,meteohub,2013-07-23 12:37:00,
2013-07-23 08:42:00,79.2,71.8,31.03,East,93,10.0,13.0,78,0.00,,,0.00,meteohub,2013-07-23 12:42:00,
2013-07-23 08:48:00,79.3,72.3,31.03,East,88,10.0,13.0,79,0.00,,,0.00,meteohub,2013-07-23 12:48:00,
2013-07-23 08:53:00,79.9,72.9,31.03,ESE,102,6.0,13.0,79,0.00,,,0.00,meteohub,2013-07-23 12:53:00,
2013-07-23 08:58:00,80.2,73.0,31.03,East,80,5.0,13.0,79,0.00,,,0.00,meteohub,2013-07-23 12:58:00,
2013-07-23 09:04:00,80.8,73.2,31.03,East,100,6.0,13.0,78,0.00,,,0.00,meteohub,2013-07-23 13:04:00,
2013-07-23 09:09:00,80.8,72.9,31.03,East,83,8.0,13.0,77,0.00,,,0.00,meteohub,2013-07-23 13:09:00,
2013-07-23 09:14:00,81.0,73.0,31.03,ESE,105,10.0,13.0,77,0.00,,,0.00,meteohub,2013-07-23 13:14:00,
2013-07-23 09:20:00,81.1,72.9,31.03,East,86,8.0,13.0,76,0.00,,,0.00,meteohub,2013-07-23 13:20:00,
2013-07-23 09:25:00,81.3,72.7,31.03,East,101,8.0,13.0,75,0.00,,,0.00,meteohub,2013-07-23 13:25:00,
2013-07-23 09:30:00,81.3,71.1,31.03,East,100,11.0,13.0,71,0.00,,,0.00,meteohub,2013-07-23 13:30:00,
2013-07-23 09:35:00,81.7,71.8,31.03,ENE,78,9.0,13.0,72,0.00,,,0.00,meteohub,2013-07-23 13:35:00,
2013-07-23 09:41:00,82.0,70.9,31.03,ENE,76,5.0,13.0,69,0.00,,,0.00,meteohub,2013-07-23 13:41:00,
2013-07-23 09:46:00,82.2,68.9,31.03,East,92,6.0,13.0,64,0.00,,,0.00,meteohub,2013-07-23 13:46:00,
2013-07-23 09:51:00,82.2,66.4,31.03,East,98,6.0,13.0,59,0.00,,,0.00,meteohub,2013-07-23 13:51:00,
2013-07-23 09:56:00,82.6,66.4,31.03,ESE,106,8.0,10.0,58,0.00,,,0.00,meteohub,2013-07-23 13:56:00,
2013-07-23 10:02:00,82.9,66.2,31.03,East,101,5.0,10.0,57,0.00,,,0.00,meteohub,2013-07-23 14:02:00,
2013-07-23 10:07:00,82.9,65.1,31.03,SSE,151,11.0,11.0,55,0.00,,,0.00,meteohub,2013-07-23 14:07:00,
2013-07-23 10:12:00,82.9,65.7,31.03,ESE,106,11.0,11.0,56,0.00,,,0.00,meteohub,2013-07-23 14:12:00,
2013-07-23 10:17:00,82.6,63.7,31.03,ESE,115,8.0,12.0,53,0.00,,,0.00,meteohub,2013-07-23 14:17:00,
2013-07-23 10:22:00,82.6,64.2,31.03,SE,125,11.0,12.0,54,0.00,,,0.00,meteohub,2013-07-23 14:22:00,
2013-07-23 10:27:00,82.4,63.5,31.03,SE,125,11.0,12.0,53,0.00,,,0.00,meteohub,2013-07-23 14:27:00,
2013-07-23 10:32:00,82.4,64.6,31.03,ESE,123,11.0,12.0,55,0.00,,,0.00,meteohub,2013-07-23 14:32:00,
2013-07-23 10:37:00,82.4,65.1,31.03,ESE,121,12.0,13.0,56,0.00,,,0.00,meteohub,2013-07-23 14:37:00,
2013-07-23 10:42:00,82.0,64.2,31.03,ESE,109,13.0,13.0,55,0.00,,,0.00,meteohub,2013-07-23 14:42:00,
2013-07-23 10:47:00,82.2,65.5,31.03,ESE,120,11.0,13.0,57,0.00,,,0.00,meteohub,2013-07-23 14:47:00,
2013-07-23 10:52:00,82.0,64.8,31.03,ESE,116,12.0,15.0,56,0.00,,,0.00,meteohub,2013-07-23 14:52:00,
2013-07-23 10:57:00,82.4,65.7,31.03,ESE,105,11.0,15.0,57,0.00,,,0.00,meteohub,2013-07-23 14:57:00,
2013-07-23 11:02:00,82.6,65.3,31.03,ESE,116,9.0,15.0,56,0.00,,,0.00,meteohub,2013-07-23 15:02:00,
2013-07-23 11:07:00,82.6,63.7,31.03,ESE,114,8.0,15.0,53,0.00,,,0.00,meteohub,2013-07-23 15:07:00,
2013-07-23 11:13:00,83.3,64.9,31.03,SE,128,11.0,15.0,54,0.00,,,0.00,meteohub,2013-07-23 15:13:00,
2013-07-23 11:18:00,82.8,61.7,31.03,ESE,115,13.0,15.0,49,0.00,,,0.00,meteohub,2013-07-23 15:18:00,
2013-07-23 11:23:00,83.7,63.7,31.03,SE,125,13.0,13.0,51,0.00,,,0.00,meteohub,2013-07-23 15:23:00,
2013-07-23 11:28:00,83.7,61.9,31.03,ESE,118,10.0,13.0,48,0.00,,,0.00,meteohub,2013-07-23 15:28:00,
2013-07-23 11:34:00,83.8,60.8,31.03,ESE,120,12.0,13.0,46,0.00,,,0.00,meteohub,2013-07-23 15:34:00,
2013-07-23 11:39:00,84.2,61.7,31.03,SE,127,12.0,13.0,47,0.00,,,0.00,meteohub,2013-07-23 15:39:00,
2013-07-23 11:44:00,84.7,61.7,31.03,SE,128,8.0,15.0,46,0.00,,,0.00,meteohub,2013-07-23 15:44:00,
2013-07-23 11:49:00,84.6,60.3,31.03,SE,127,8.0,15.0,44,0.00,,,0.00,meteohub,2013-07-23 15:49:00,
2013-07-23 11:54:00,84.2,59.9,31.03,ESE,121,9.0,15.0,44,0.00,,,0.00,meteohub,2013-07-23 15:54:00,
2013-07-23 12:00:00,84.7,60.4,31.03,ESE,120,10.0,15.0,44,0.00,,,0.00,meteohub,2013-07-23 16:00:00,
2013-07-23 12:05:00,84.7,60.4,31.03,SSE,153,11.0,15.0,44,0.00,,,0.00,meteohub,2013-07-23 16:05:00,
2013-07-23 12:10:00,84.9,60.6,31.03,South,170,9.0,15.0,44,0.00,,,0.00,meteohub,2013-07-23 16:10:00,
2013-07-23 12:15:00,84.9,59.9,31.03,SE,128,15.0,15.0,43,0.00,,,0.00,meteohub,2013-07-23 16:15:00,
2013-07-23 12:21:00,85.3,59.5,31.03,SE,129,12.0,16.0,42,0.00,,,0.00,meteohub,2013-07-23 16:21:00,
2013-07-23 12:26:00,85.6,59.9,31.03,SSE,157,11.0,16.0,42,0.00,,,0.00,meteohub,2013-07-23 16:26:00,
2013-07-23 12:31:00,85.6,59.2,31.03,ESE,118,15.0,16.0,41,0.00,,,0.00,meteohub,2013-07-23 16:31:00,
2013-07-23 12:37:00,85.5,59.0,31.03,SE,143,15.0,16.0,41,0.00,,,0.00,meteohub,2013-07-23 16:37:00,
2013-07-23 12:42:00,85.3,59.0,31.03,SSE,167,15.0,17.0,41,0.00,,,0.00,meteohub,2013-07-23 16:42:00,
2013-07-23 12:47:00,84.9,59.2,31.03,SSE,164,17.0,17.0,42,0.00,,,0.00,meteohub,2013-07-23 16:47:00,
2013-07-23 12:52:00,85.3,59.5,31.03,SE,140,13.0,17.0,42,0.00,,,0.00,meteohub,2013-07-23 16:52:00,
2013-07-23 12:57:00,85.6,59.9,31.03,SE,146,15.0,17.0,42,0.00,,,0.00,meteohub,2013-07-23 16:57:00,
2013-07-23 13:02:00,85.6,59.2,31.03,SE,144,13.0,18.0,41,0.00,,,0.00,meteohub,2013-07-23 17:02:00,
2013-07-23 13:07:00,85.6,58.5,31.03,SE,138,17.0,18.0,40,0.00,,,0.00,meteohub,2013-07-23 17:07:00,
2013-07-23 13:13:00,85.8,58.6,31.03,SE,145,13.0,18.0,40,0.00,,,0.00,meteohub,2013-07-23 17:13:00,
2013-07-23 13:18:00,86.2,58.3,31.03,SE,136,13.0,20.0,39,0.00,,,0.00,meteohub,2013-07-23 17:18:00,
2013-07-23 13:23:00,86.2,58.3,31.03,SSE,147,14.0,20.0,39,0.00,,,0.00,meteohub,2013-07-23 17:23:00,
2013-07-23 13:28:00,86.0,58.1,31.03,SE,142,15.0,20.0,39,0.00,,,0.00,meteohub,2013-07-23 17:28:00,
2013-07-23 13:34:00,85.8,57.9,31.03,SE,135,13.0,20.0,39,0.00,,,0.00,meteohub,2013-07-23 17:34:00,
2013-07-23 13:39:00,85.6,57.9,31.03,SE,145,17.0,20.0,39,0.00,,,0.00,meteohub,2013-07-23 17:39:00,
2013-07-23 13:44:00,85.5,58.5,31.03,SE,144,13.0,20.0,40,0.00,,,0.00,meteohub,2013-07-23 17:44:00,
2013-07-23 13:51:00,85.5,58.5,31.03,ESE,117,12.0,20.0,40,0.00,,,0.00,meteohub,2013-07-23 17:51:00,
2013-07-23 13:57:00,85.3,58.3,31.03,SSE,155,15.0,19.0,40,0.00,,,0.00,meteohub,2013-07-23 17:57:00,
2013-07-23 14:04:00,85.3,58.3,31.03,South,176,13.0,19.0,40,0.00,,,0.00,meteohub,2013-07-23 18:04:00,
2013-07-23 14:09:00,85.3,58.3,31.03,SSE,162,17.0,19.0,40,0.00,,,0.00,meteohub,2013-07-23 18:09:00,
2013-07-23 14:14:00,85.1,57.4,31.03,SSE,154,14.0,-999.0,39,0.00,,,0.00,meteohub,2013-07-23 18:14:00,
2013-07-23 14:20:00,85.1,57.4,31.03,SSE,157,16.0,-999.0,39,0.00,,,0.00,meteohub,2013-07-23 18:20:00,
2013-07-23 14:25:00,85.3,57.6,31.03,SE,139,17.0,-999.0,39,0.00,,,0.00,meteohub,2013-07-23 18:25:00,
2013-07-23 14:30:00,85.1,57.4,31.03,SE,132,18.0,-999.0,39,0.00,,,0.00,meteohub,2013-07-23 18:30:00,
2013-07-23 14:39:00,85.1,58.1,31.03,SSE,148,15.0,-999.0,40,0.00,,,0.00,meteohub,2013-07-23 18:39:00,
2013-07-23 14:46:00,84.9,59.2,31.03,SE,141,15.0,-999.0,42,0.00,,,0.00,meteohub,2013-07-23 18:46:00,
2013-07-23 14:51:00,84.4,58.8,31.03,SE,131,17.0,-999.0,42,0.00,,,0.00,meteohub,2013-07-23 18:51:00,
2013-07-23 14:56:00,84.0,59.2,31.03,SSE,149,17.0,-999.0,43,0.00,,,0.00,meteohub,2013-07-23 18:56:00,
2013-07-23 15:02:00,84.6,59.0,31.03,SSE,154,17.0,-999.0,42,0.00,,,0.00,meteohub,2013-07-23 19:02:00,
2013-07-23 15:07:00,84.4,58.1,31.03,SE,136,12.0,-999.0,41,-99.99,,,0.00,meteohub,2013-07-23 19:07:00,
2013-07-23 15:12:00,84.7,58.5,31.03,SE,134,17.0,-999.0,41,-99.99,,,0.00,meteohub,2013-07-23 19:12:00,
2013-07-23 15:19:00,84.7,58.5,31.03,East,100,15.0,-999.0,41,-99.99,,,0.00,meteohub,2013-07-23 19:19:00,
2013-07-23 15:24:00,84.9,58.6,31.03,SE,137,17.0,-999.0,41,-99.99,,,0.00,meteohub,2013-07-23 19:24:00,
2013-07-23 15:30:00,84.7,57.7,31.03,SSE,152,15.0,-999.0,40,-99.99,,,0.00,meteohub,2013-07-23 19:30:00,
2013-07-23 15:35:00,84.7,58.5,31.03,SE,146,15.0,-999.0,41,-99.99,,,0.00,meteohub,2013-07-23 19:35:00,
2013-07-23 15:41:00,84.7,58.5,31.03,SE,137,15.0,-999.0,41,-99.99,,,0.00,meteohub,2013-07-23 19:41:00,
2013-07-23 15:46:00,84.7,57.7,31.03,SSE,156,20.0,-999.0,40,-99.99,,,0.00,meteohub,2013-07-23 19:46:00,
2013-07-23 15:51:00,84.7,57.7,31.03,SE,140,18.0,-999.0,40,-99.99,,,0.00,meteohub,2013-07-23 19:51:00,
2013-07-23 15:57:00,84.6,57.6,31.03,SE,137,17.0,-999.0,40,-99.99,,,0.00,meteohub,2013-07-23 19:57:00,
2013-07-23 16:02:00,84.6,58.3,31.03,SE,133,17.0,-999.0,41,-99.99,,,0.00,meteohub,2013-07-23 20:02:00,
2013-07-23 16:09:00,84.4,58.1,31.03,ESE,113,20.0,-999.0,41,-99.99,,,0.00,meteohub,2013-07-23 20:09:00,
2013-07-23 16:17:00,84.2,57.9,31.03,SE,128,16.0,-999.0,41,-99.99,,,0.00,meteohub,2013-07-23 20:17:00,
2013-07-23 16:22:00,84.4,59.4,31.03,SE,139,13.0,-999.0,43,-99.99,,,0.00,meteohub,2013-07-23 20:22:00,
2013-07-23 16:27:00,84.2,57.9,31.03,SSE,151,17.0,-999.0,41,-99.99,,,0.00,meteohub,2013-07-23 20:27:00,
2013-07-23 16:35:00,84.2,57.9,31.03,SSE,150,20.0,-999.0,41,-99.99,,,0.00,meteohub,2013-07-23 20:35:00,
2013-07-23 16:40:00,84.6,58.3,31.03,SE,133,17.0,-999.0,41,-99.99,,,0.00,meteohub,2013-07-23 20:40:00,
2013-07-23 16:45:00,84.6,58.3,31.03,SSE,152,11.0,-999.0,41,-99.99,,,0.00,meteohub,2013-07-23 20:45:00,
2013-07-23 16:51:00,84.6,56.8,31.03,South,183,17.0,-999.0,39,-99.99,,,0.00,meteohub,2013-07-23 20:51:00,
2013-07-23 16:56:00,84.6,56.8,31.03,South,177,21.0,-999.0,39,-99.99,,,0.00,meteohub,2013-07-23 20:56:00,
2013-07-23 17:02:00,84.2,55.8,31.03,South,171,23.0,-999.0,38,-99.99,,,0.00,meteohub,2013-07-23 21:02:00,
2013-07-23 17:07:00,84.2,55.8,31.03,SE,144,17.0,-999.0,38,-99.99,,,0.00,meteohub,2013-07-23 21:07:00,
2013-07-23 17:12:00,84.2,55.8,31.03,South,183,20.0,-999.0,38,-99.99,,,0.00,meteohub,2013-07-23 21:12:00,
2013-07-23 17:17:00,84.0,55.8,31.03,South,172,20.0,-999.0,38,-99.99,,,0.00,meteohub,2013-07-23 21:17:00,
2013-07-23 17:23:00,84.0,56.5,31.03,South,172,16.0,-999.0,39,-99.99,,,0.00,meteohub,2013-07-23 21:23:00,
2013-07-23 17:29:00,83.8,56.3,31.03,South,170,24.0,-999.0,39,-99.99,,,0.00,meteohub,2013-07-23 21:29:00,
2013-07-23 17:34:00,83.8,57.0,31.03,SSE,158,23.0,-999.0,40,-99.99,,,0.00,meteohub,2013-07-23 21:34:00,
2013-07-23 17:39:00,83.7,56.1,31.03,South,175,21.0,-999.0,39,-99.99,,,0.00,meteohub,2013-07-23 21:39:00,
2013-07-23 17:45:00,83.1,56.3,31.03,South,170,23.0,-999.0,40,-99.99,,,0.00,meteohub,2013-07-23 21:45:00,
2013-07-23 17:52:00,82.6,57.2,31.03,SSE,167,17.0,-999.0,42,-99.99,,,0.00,meteohub,2013-07-23 21:52:00,
2013-07-23 17:57:00,82.9,58.1,31.03,South,174,17.0,-999.0,43,-99.99,,,0.00,meteohub,2013-07-23 21:57:00,
2013-07-23 18:05:00,82.6,57.7,31.03,SSE,163,23.0,-999.0,43,-99.99,,,0.00,meteohub,2013-07-23 22:05:00,
2013-07-23 18:10:00,82.6,58.5,31.03,SSE,158,23.0,-999.0,44,-99.99,,,0.00,meteohub,2013-07-23 22:10:00,
2013-07-23 18:17:00,82.6,57.7,31.03,South,172,20.0,-999.0,43,-99.99,,,0.00,meteohub,2013-07-23 22:17:00,
2013-07-23 18:23:00,82.8,58.6,31.03,SSE,162,19.0,-999.0,44,-99.99,,,0.00,meteohub,2013-07-23 22:23:00,
2013-07-23 18:28:00,82.6,58.5,31.03,SSE,154,18.0,-999.0,44,-99.99,,,0.00,meteohub,2013-07-23 22:28:00,
2013-07-23 18:35:00,82.6,58.5,31.03,South,171,22.0,-999.0,44,-99.99,,,0.00,meteohub,2013-07-23 22:35:00,
2013-07-23 18:40:00,82.2,58.8,31.03,South,183,18.0,-999.0,45,-99.99,,,0.00,meteohub,2013-07-23 22:40:00,
2013-07-23 18:46:00,82.2,59.4,31.03,South,180,15.0,-999.0,46,-99.99,,,0.00,meteohub,2013-07-23 22:46:00,
2013-07-23 18:51:00,82.2,59.4,31.03,South,170,16.0,-999.0,46,-99.99,,,0.00,meteohub,2013-07-23 22:51:00,
2013-07-23 18:56:00,82.0,59.2,31.03,South,182,20.0,-999.0,46,-99.99,,,0.00,meteohub,2013-07-23 22:56:00,
2013-07-23 19:01:00,82.0,59.2,31.03,SSE,156,20.0,-999.0,46,-99.99,,,0.00,meteohub,2013-07-23 23:01:00,
2013-07-23 19:06:00,81.9,59.7,31.03,South,179,15.0,-999.0,47,-99.99,,,0.00,meteohub,2013-07-23 23:06:00,
2013-07-23 19:12:00,81.9,59.7,31.03,SSE,157,15.0,-999.0,47,-99.99,,,0.00,meteohub,2013-07-23 23:12:00,
2013-07-23 19:17:00,81.7,60.1,31.03,South,173,17.0,-999.0,48,-99.99,,,0.00,meteohub,2013-07-23 23:17:00,
2013-07-23 19:22:00,81.7,60.1,31.03,South,186,14.0,-999.0,48,-99.99,,,0.00,meteohub,2013-07-23 23:22:00,
2013-07-23 19:27:00,81.7,60.6,31.03,South,179,14.0,-999.0,49,-99.99,,,0.00,meteohub,2013-07-23 23:27:00,
2013-07-23 19:33:00,81.5,60.4,31.03,South,180,16.0,-999.0,49,-99.99,,,0.00,meteohub,2013-07-23 23:33:00,
2013-07-23 19:39:00,81.5,60.4,31.03,SSE,165,16.0,-999.0,49,-99.99,,,0.00,meteohub,2013-07-23 23:39:00,
2013-07-23 19:44:00,81.5,61.0,31.03,SSE,167,17.0,-999.0,50,-99.99,,,0.00,meteohub,2013-07-23 23:44:00,
2013-07-23 19:55:00,81.5,61.0,31.03,SSE,163,15.0,-999.0,50,-99.99,,,0.00,meteohub,2013-07-23 23:55:00,
2013-07-23 20:00:00,81.3,61.0,31.03,South,180,19.0,-999.0,50,-99.99,,,0.00,meteohub,2013-07-24 00:00:00,
2013-07-23 20:07:00,81.5,61.7,31.03,South,179,13.0,-999.0,51,-99.99,,,0.00,meteohub,2013-07-24 00:07:00,
2013-07-23 20:12:00,81.5,61.7,31.03,South,177,16.0,-999.0,51,-99.99,,,0.00,meteohub,2013-07-24 00:12:00,
2013-07-23 20:20:00,81.5,61.7,31.03,SSE,163,18.0,-999.0,51,-99.99,,,0.00,meteohub,2013-07-24 00:20:00,
2013-07-23 20:26:00,81.5,61.7,31.03,South,174,15.0,-999.0,51,-99.99,,,0.00,meteohub,2013-07-24 00:26:00,
2013-07-23 20:32:00,81.7,62.4,31.03,SSE,168,17.0,-999.0,52,-99.99,,,0.00,meteohub,2013-07-24 00:32:00,
2013-07-23 20:37:00,81.7,62.4,31.03,South,180,13.0,-999.0,52,-99.99,,,0.00,meteohub,2013-07-24 00:37:00,
2013-07-23 20:42:00,81.7,62.4,31.03,SSE,159,15.0,-999.0,52,-99.99,,,0.00,meteohub,2013-07-24 00:42:00,
2013-07-23 20:48:00,81.7,62.4,31.03,SSE,159,15.0,-999.0,52,-99.99,,,0.00,meteohub,2013-07-24 00:48:00,
2013-07-23 20:53:00,81.9,63.0,31.03,South,172,17.0,-999.0,53,-99.99,,,0.00,meteohub,2013-07-24 00:53:00,
2013-07-23 21:01:00,81.9,63.0,31.03,SSE,162,15.0,-999.0,53,-99.99,,,0.00,meteohub,2013-07-24 01:01:00,
2013-07-23 21:07:00,81.7,63.0,31.03,South,187,17.0,-999.0,53,-99.99,,,0.00,meteohub,2013-07-24 01:07:00,
2013-07-23 21:12:00,81.7,62.4,31.03,SSW,201,13.0,-999.0,52,-99.99,,,0.00,meteohub,2013-07-24 01:12:00,
2013-07-23 21:17:00,81.3,62.1,31.03,South,172,11.0,-999.0,52,-99.99,,,0.00,meteohub,2013-07-24 01:17:00,
2013-07-23 21:22:00,81.3,62.1,31.03,SSE,161,13.0,-999.0,52,-99.99,,,0.00,meteohub,2013-07-24 01:22:00,
2013-07-23 21:27:00,81.3,62.1,31.03,SSE,160,13.0,-999.0,52,-99.99,,,0.00,meteohub,2013-07-24 01:27:00,
2013-07-23 21:32:00,81.3,62.1,31.03,South,191,17.0,-999.0,52,-99.99,,,0.00,meteohub,2013-07-24 01:32:00,
2013-07-23 21:37:00,81.3,62.6,31.03,SSE,150,12.0,-999.0,53,-99.99,,,0.00,meteohub,2013-07-24 01:37:00,
2013-07-23 21:42:00,81.1,62.4,31.03,South,190,16.0,-999.0,53,-99.99,,,0.00,meteohub,2013-07-24 01:42:00,
2013-07-23 21:47:00,81.1,62.4,31.03,South,184,11.0,-999.0,53,-99.99,,,0.00,meteohub,2013-07-24 01:47:00,
2013-07-23 21:53:00,81.1,62.4,31.03,South,190,13.0,-999.0,53,-99.99,,,0.00,meteohub,2013-07-24 01:53:00,
2013-07-23 22:05:00,81.1,63.0,31.03,SSE,163,12.0,-999.0,54,-99.99,,,0.00,meteohub,2013-07-24 02:05:00,
2013-07-23 22:10:00,81.5,63.9,31.03,SSE,165,15.0,-999.0,55,-99.99,,,0.00,meteohub,2013-07-24 02:10:00,
2013-07-23 22:17:00,81.7,63.9,31.03,SSE,160,8.0,-999.0,55,-99.99,,,0.00,meteohub,2013-07-24 02:17:00,
2013-07-23 22:22:00,81.7,64.4,31.03,SSE,161,11.0,-999.0,56,-99.99,,,0.00,meteohub,2013-07-24 02:22:00,
2013-07-23 22:27:00,81.7,64.4,31.03,South,172,15.0,-999.0,56,-99.99,,,0.00,meteohub,2013-07-24 02:27:00,
2013-07-23 22:32:00,81.5,63.9,31.03,South,169,12.0,-999.0,55,-99.99,,,0.00,meteohub,2013-07-24 02:32:00,
2013-07-23 22:37:00,81.5,63.9,31.03,South,172,16.0,-999.0,55,-99.99,,,0.00,meteohub,2013-07-24 02:37:00,
2013-07-23 22:42:00,81.5,63.9,31.03,South,173,15.0,-999.0,55,-99.99,,,0.00,meteohub,2013-07-24 02:42:00,
2013-07-23 22:47:00,81.5,63.9,31.03,South,175,15.0,-999.0,55,-99.99,,,0.00,meteohub,2013-07-24 02:47:00,
2013-07-23 22:54:00,81.3,63.7,31.03,South,178,16.0,-999.0,55,-99.99,,,0.00,meteohub,2013-07-24 02:54:00,
2013-07-23 23:02:00,81.3,63.7,31.03,SSE,159,15.0,-999.0,55,-99.99,,,0.00,meteohub,2013-07-24 03:02:00,
2013-07-23 23:07:00,81.3,64.0,31.03,South,171,16.0,-999.0,56,-99.99,,,0.00,meteohub,2013-07-24 03:07:00,
2013-07-23 23:12:00,81.3,64.0,31.03,South,169,15.0,-999.0,56,-99.99,,,0.00,meteohub,2013-07-24 03:12:00,
2013-07-23 23:17:00,81.3,64.0,31.03,SSE,163,15.0,-999.0,56,-99.99,,,0.00,meteohub,2013-07-24 03:17:00,
2013-07-23 23:24:00,81.1,64.0,31.03,South,181,12.0,-999.0,56,-99.99,,,0.00,meteohub,2013-07-24 03:24:00,
2013-07-23 23:30:00,81.1,64.0,31.03,South,173,11.0,-999.0,56,-99.99,,,0.00,meteohub,2013-07-24 03:30:00,
2013-07-23 23:35:00,81.0,63.9,31.03,SSE,159,16.0,-999.0,56,-99.99,,,0.00,meteohub,2013-07-24 03:35:00,
2013-07-23 23:42:00,81.0,63.9,31.03,SSE,166,13.0,-999.0,56,-99.99,,,0.00,meteohub,2013-07-24 03:42:00,
2013-07-23 23:47:00,81.0,63.9,31.03,SSE,165,13.0,-999.0,56,-99.99,,,0.00,meteohub,2013-07-24 03:47:00,
2013-07-23 23:52:00,81.0,63.9,31.03,South,181,10.0,-999.0,56,-99.99,,,0.00,meteohub,2013-07-24 03:52:00,
2013-07-23 23:57:00,80.8,63.7,31.03,South,182,12.0,-999.0,56,-99.99,,,0.00,meteohub,2013-07-24 03:57:00,